Accueil
METAR-TAF:

METAR-TAF

Aéroports :

Sabadell, Espagne

latitude: 41-31N, longitude: 002-06E, altitude: 250 m

Observation

Le bulletin a été fait il y a 32 minutes, à 00:00 UTC
Vent 2 kt de direction variable
Température 2°C
Humidité 93%
Pression 1007 hPa
Visibilité: 6000 m

METAR: LELL 240000Z AUTO VRB02KT 6000 NSC 02/01 Q1007

Heure: 01:32 (00:32 UTC)

Prévision

Le bulletin a été fait il y a 10 heures et 32 minutes, à 14:00 UTC
Prévision valable du 23 à 15 UTC au 24 à 15 UTC
Vent 6 kt de sud
Visibilité 10 km ou plus
Quelques nuages à une hauteur de 4000 ft

TAF: LELL 231400Z 2315/2415 18006KT 9999 FEW040 TX13/2413Z TN01/2406Z

Observations et prévisions météorologiques de plus de 4000 aéroports (messages METAR et TAF).

Les stations disponibles sont représentées par des disques jaunes et rouges sur la carte.

Passer la souris dessus pour voir le nom de la station.

Cliquer dessus pour voir les observations et prévisions météorologiques.

Pour changer de carte: cliquez sur les boutons verts avec une croix noire pour zoomer, sur le bouton vert avec un tiret pour effectuer un zoom arrière, ou sur les flèches vertes pour les cartes adjacentes.


METAR-TAF: